sensor_id;sensor_type;location;lat;lon;timestamp;pressure;altitude;pressure_sealevel;temperature;humidity
30636;BME280;17400;52.392;9.750;2023-03-18T00:01:33;100221.88;;;12.88;79.02
30636;BME280;17400;52.392;9.750;2023-03-18T00:04:00;100224.84;;;12.87;81.17
30636;BME280;17400;52.392;9.750;2023-03-18T00:06:29;100218.41;;;12.81;81.87
30636;BME280;17400;52.392;9.750;2023-03-18T00:08:57;100212.75;;;12.82;81.52
30636;BME280;17400;52.392;9.750;2023-03-18T00:11:26;100214.78;;;12.87;83.46
30636;BME280;17400;52.392;9.750;2023-03-18T00:13:54;100217.06;;;12.90;87.08
30636;BME280;17400;52.392;9.750;2023-03-18T00:16:22;100216.03;;;12.91;92.51
30636;BME280;17400;52.392;9.750;2023-03-18T00:18:49;100220.19;;;12.94;96.70
30636;BME280;17400;52.392;9.750;2023-03-18T00:21:17;100216.84;;;12.92;97.98
30636;BME280;17400;52.392;9.750;2023-03-18T00:23:45;100212.91;;;12.88;94.76
30636;BME280;17400;52.392;9.750;2023-03-18T00:26:14;100215.88;;;12.86;95.24
30636;BME280;17400;52.392;9.750;2023-03-18T00:28:43;100210.34;;;12.74;95.63
30636;BME280;17400;52.392;9.750;2023-03-18T00:31:11;100214.97;;;12.67;95.47
30636;BME280;17400;52.392;9.750;2023-03-18T00:33:40;100216.25;;;12.64;95.75
30636;BME280;17400;52.392;9.750;2023-03-18T00:36:12;100218.75;;;12.66;94.59
30636;BME280;17400;52.392;9.750;2023-03-18T00:38:40;100214.97;;;12.67;95.33
30636;BME280;17400;52.392;9.750;2023-03-18T00:41:12;100216.66;;;12.68;95.18
30636;BME280;17400;52.392;9.750;2023-03-18T00:43:44;100222.09;;;12.68;95.70
30636;BME280;17400;52.392;9.750;2023-03-18T00:46:20;100230.63;;;12.72;93.48
30636;BME280;17400;52.392;9.750;2023-03-18T00:48:49;100233.75;;;12.69;92.88
30636;BME280;17400;52.392;9.750;2023-03-18T00:51:19;100236.28;;;12.70;92.23
30636;BME280;17400;52.392;9.750;2023-03-18T00:53:49;100244.63;;;12.69;90.78
30636;BME280;17400;52.392;9.750;2023-03-18T00:56:18;100237.75;;;12.66;90.58
30636;BME280;17400;52.392;9.750;2023-03-18T00:58:49;100246.75;;;12.66;89.72
30636;BME280;17400;52.392;9.750;2023-03-18T01:01:18;100253.00;;;12.67;90.60
30636;BME280;17400;52.392;9.750;2023-03-18T01:03:47;100253.47;;;12.64;92.34
30636;BME280;17400;52.392;9.750;2023-03-18T01:06:17;100258.72;;;12.59;92.22
30636;BME280;17400;52.392;9.750;2023-03-18T01:08:46;100257.06;;;12.58;92.68
30636;BME280;17400;52.392;9.750;2023-03-18T01:11:13;100256.22;;;12.57;92.86
30636;BME280;17400;52.392;9.750;2023-03-18T01:13:41;100257.28;;;12.56;92.75
30636;BME280;17400;52.392;9.750;2023-03-18T01:16:11;100257.72;;;12.53;93.26
30636;BME280;17400;52.392;9.750;2023-03-18T01:18:39;100252.25;;;12.60;92.12
30636;BME280;17400;52.392;9.750;2023-03-18T01:21:08;100251.78;;;12.63;90.89
30636;BME280;17400;52.392;9.750;2023-03-18T01:23:36;100246.75;;;12.66;90.28
30636;BME280;17400;52.392;9.750;2023-03-18T01:26:04;100243.81;;;12.68;90.06
30636;BME280;17400;52.392;9.750;2023-03-18T01:28:33;100237.91;;;12.71;89.95
30636;BME280;17400;52.392;9.750;2023-03-18T01:31:00;100235.66;;;12.68;88.74
30636;BME280;17400;52.392;9.750;2023-03-18T01:33:30;100247.56;;;12.67;88.36
30636;BME280;17400;52.392;9.750;2023-03-18T01:36:01;100255.28;;;12.70;88.66
30636;BME280;17400;52.392;9.750;2023-03-18T01:38:29;100261.78;;;12.69;88.30
30636;BME280;17400;52.392;9.750;2023-03-18T01:40:57;100260.09;;;12.68;89.00
30636;BME280;17400;52.392;9.750;2023-03-18T01:43:27;100258.44;;;12.67;88.93
30636;BME280;17400;52.392;9.750;2023-03-18T01:45:57;100259.47;;;12.66;89.42
30636;BME280;17400;52.392;9.750;2023-03-18T01:48:28;100261.16;;;12.67;88.92
30636;BME280;17400;52.392;9.750;2023-03-18T01:50:59;100260.72;;;12.70;89.97
30636;BME280;17400;52.392;9.750;2023-03-18T01:53:31;100269.25;;;12.74;90.52
30636;BME280;17400;52.392;9.750;2023-03-18T01:56:02;100259.00;;;12.76;91.25
30636;BME280;17400;52.392;9.750;2023-03-18T01:58:35;100262.94;;;12.80;92.31
30636;BME280;17400;52.392;9.750;2023-03-18T02:01:07;100251.00;;;12.81;94.31
30636;BME280;17400;52.392;9.750;2023-03-18T02:03:37;100259.16;;;12.81;93.52
30636;BME280;17400;52.392;9.750;2023-03-18T02:06:08;100253.72;;;12.81;94.59
30636;BME280;17400;52.392;9.750;2023-03-18T02:08:38;100253.72;;;12.81;97.46
30636;BME280;17400;52.392;9.750;2023-03-18T02:11:07;100253.03;;;12.86;100.00
30636;BME280;17400;52.392;9.750;2023-03-18T02:13:38;100246.41;;;12.81;100.00
30636;BME280;17400;52.392;9.750;2023-03-18T02:16:10;100247.44;;;12.80;100.00
30636;BME280;17400;52.392;9.750;2023-03-18T02:18:42;100253.72;;;12.81;100.00
30636;BME280;17400;52.392;9.750;2023-03-18T02:21:26;100254.38;;;12.76;100.00
30636;BME280;17400;52.392;9.750;2023-03-18T02:24:03;100256.56;;;12.68;100.00
30636;BME280;17400;52.392;9.750;2023-03-18T02:26:48;100260.22;;;12.55;100.00
30636;BME280;17400;52.392;9.750;2023-03-18T02:29:20;100255.84;;;12.54;100.00
30636;BME280;17400;52.392;9.750;2023-03-18T02:31:48;100255.66;;;12.48;100.00
30636;BME280;17400;52.392;9.750;2023-03-18T02:34:16;100251.91;;;12.49;100.00
30636;BME280;17400;52.392;9.750;2023-03-18T02:36:45;100254.63;;;12.49;100.00
30636;BME280;17400;52.392;9.750;2023-03-18T02:39:14;100247.28;;;12.50;100.00
30636;BME280;17400;52.392;9.750;2023-03-18T02:41:42;100249.19;;;12.49;100.00
30636;BME280;17400;52.392;9.750;2023-03-18T02:44:11;100250.22;;;12.48;100.00
30636;BME280;17400;52.392;9.750;2023-03-18T02:46:48;100260.50;;;12.46;100.00
30636;BME280;17400;52.392;9.750;2023-03-18T02:49:20;100265.53;;;12.43;100.00
30636;BME280;17400;52.392;9.750;2023-03-18T02:51:51;100272.84;;;12.42;100.00
30636;BME280;17400;52.392;9.750;2023-03-18T02:54:21;100263.28;;;12.40;100.00
30636;BME280;17400;52.392;9.750;2023-03-18T02:56:49;100273.28;;;12.39;100.00
30636;BME280;17400;52.392;9.750;2023-03-18T02:59:17;100278.47;;;12.41;100.00
30636;BME280;17400;52.392;9.750;2023-03-18T03:01:49;100280.38;;;12.40;100.00
30636;BME280;17400;52.392;9.750;2023-03-18T03:04:18;100277.03;;;12.38;100.00
30636;BME280;17400;52.392;9.750;2023-03-18T03:06:47;100279.09;;;12.43;100.00
30636;BME280;17400;52.392;9.750;2023-03-18T03:09:16;100278.28;;;12.42;100.00
30636;BME280;17400;52.392;9.750;2023-03-18T03:11:45;100288.50;;;12.40;100.00
30636;BME280;17400;52.392;9.750;2023-03-18T03:14:14;100279.16;;;12.36;100.00
30636;BME280;17400;52.392;9.750;2023-03-18T03:16:42;100277.06;;;12.31;100.00
30636;BME280;17400;52.392;9.750;2023-03-18T03:19:12;100292.31;;;12.32;100.00
30636;BME280;17400;52.392;9.750;2023-03-18T03:21:39;100291.31;;;12.27;100.00
30636;BME280;17400;52.392;9.750;2023-03-18T03:24:08;100302.19;;;12.27;100.00
30636;BME280;17400;52.392;9.750;2023-03-18T03:26:36;100292.38;;;12.26;100.00
30636;BME280;17400;52.392;9.750;2023-03-18T03:29:04;100298.41;;;12.28;100.00
30636;BME280;17400;52.392;9.750;2023-03-18T03:31:33;100295.72;;;12.28;100.00
30636;BME280;17400;52.392;9.750;2023-03-18T03:34:01;100307.19;;;12.23;100.00
30636;BME280;17400;52.392;9.750;2023-03-18T03:36:31;100300.78;;;12.18;100.00
30636;BME280;17400;52.392;9.750;2023-03-18T03:38:59;100307.03;;;12.18;100.00
30636;BME280;17400;52.392;9.750;2023-03-18T03:41:26;100291.78;;;12.17;100.00
30636;BME280;17400;52.392;9.750;2023-03-18T03:43:54;100296.38;;;12.16;100.00
30636;BME280;17400;52.392;9.750;2023-03-18T03:46:22;100299.31;;;12.15;100.00
30636;BME280;17400;52.392;9.750;2023-03-18T03:48:49;100297.25;;;12.10;100.00
30636;BME280;17400;52.392;9.750;2023-03-18T03:51:17;100297.88;;;12.12;100.00
30636;BME280;17400;52.392;9.750;2023-03-18T03:53:46;100295.63;;;12.09;100.00
30636;BME280;17400;52.392;9.750;2023-03-18T03:56:14;100299.59;;;12.07;100.00
30636;BME280;17400;52.392;9.750;2023-03-18T03:58:43;100293.94;;;12.08;100.00
30636;BME280;17400;52.392;9.750;2023-03-18T04:01:11;100298.13;;;12.04;100.00
30636;BME280;17400;52.392;9.750;2023-03-18T04:03:39;100305.66;;;12.02;100.00
30636;BME280;17400;52.392;9.750;2023-03-18T04:06:06;100305.66;;;12.02;100.00
30636;BME280;17400;52.392;9.750;2023-03-18T04:08:34;100319.44;;;12.00;100.00
30636;BME280;17400;52.392;9.750;2023-03-18T04:11:03;100313.19;;;12.00;100.00
30636;BME280;17400;52.392;9.750;2023-03-18T04:13:31;100309.84;;;11.98;100.00
30636;BME280;17400;52.392;9.750;2023-03-18T04:15:59;100311.94;;;11.96;100.00
30636;BME280;17400;52.392;9.750;2023-03-18T04:18:26;100304.19;;;11.93;100.00
30636;BME280;17400;52.392;9.750;2023-03-18T04:20:54;100303.59;;;11.91;100.00
30636;BME280;17400;52.392;9.750;2023-03-18T04:23:22;100300.44;;;11.94;100.00
30636;BME280;17400;52.392;9.750;2023-03-18T04:25:50;100304.19;;;11.93;100.00
30636;BME280;17400;52.392;9.750;2023-03-18T04:28:19;100304.44;;;11.91;100.00
30636;BME280;17400;52.392;9.750;2023-03-18T04:30:46;100302.56;;;11.85;100.00
30636;BME280;17400;52.392;9.750;2023-03-18T04:33:14;100313.19;;;11.87;100.00
30636;BME280;17400;52.392;9.750;2023-03-18T04:35:42;100314.03;;;11.87;100.00
30636;BME280;17400;52.392;9.750;2023-03-18T04:38:10;100315.31;;;11.84;100.00
30636;BME280;17400;52.392;9.750;2023-03-18T04:40:38;100322.81;;;11.82;100.00
30636;BME280;17400;52.392;9.750;2023-03-18T04:43:06;100318.47;;;11.81;100.00
30636;BME280;17400;52.392;9.750;2023-03-18T04:45:36;100311.19;;;11.75;100.00
30636;BME280;17400;52.392;9.750;2023-03-18T04:48:04;100309.50;;;11.74;100.00
30636;BME280;17400;52.392;9.750;2023-03-18T04:50:32;100319.31;;;11.75;100.00
30636;BME280;17400;52.392;9.750;2023-03-18T04:53:00;100316.81;;;11.74;100.00
30636;BME280;17400;52.392;9.750;2023-03-18T04:55:28;100318.69;;;11.73;100.00
30636;BME280;17400;52.392;9.750;2023-03-18T04:57:56;100313.91;;;11.69;100.00
30636;BME280;17400;52.392;9.750;2023-03-18T05:00:24;100320.78;;;11.71;100.00
30636;BME280;17400;52.392;9.750;2023-03-18T05:02:54;100309.75;;;11.66;100.00
30636;BME280;17400;52.392;9.750;2023-03-18T05:05:22;100309.97;;;11.64;100.00
30636;BME280;17400;52.392;9.750;2023-03-18T05:07:49;100310.78;;;11.65;100.00
30636;BME280;17400;52.392;9.750;2023-03-18T05:10:17;100311.00;;;11.63;100.00
30636;BME280;17400;52.392;9.750;2023-03-18T05:12:45;100321.03;;;11.63;100.00
30636;BME280;17400;52.392;9.750;2023-03-18T05:15:14;100318.50;;;11.61;100.00
30636;BME280;17400;52.392;9.750;2023-03-18T05:17:41;100307.88;;;11.60;100.00
30636;BME280;17400;52.392;9.750;2023-03-18T05:20:11;100308.31;;;11.57;100.00
30636;BME280;17400;52.392;9.750;2023-03-18T05:22:42;100309.16;;;11.57;100.00
30636;BME280;17400;52.392;9.750;2023-03-18T05:25:10;100315.81;;;11.55;100.00
30636;BME280;17400;52.392;9.750;2023-03-18T05:27:38;100316.88;;;11.54;100.00
30636;BME280;17400;52.392;9.750;2023-03-18T05:30:06;100317.94;;;11.53;100.00
30636;BME280;17400;52.392;9.750;2023-03-18T05:32:34;100321.47;;;11.53;100.00
30636;BME280;17400;52.392;9.750;2023-03-18T05:35:04;100330.00;;;11.57;100.00
30636;BME280;17400;52.392;9.750;2023-03-18T05:37:33;100332.09;;;11.55;100.00
30636;BME280;17400;52.392;9.750;2023-03-18T05:40:02;100318.31;;;11.56;100.00
30636;BME280;17400;52.392;9.750;2023-03-18T05:42:30;100331.06;;;11.56;100.00
30636;BME280;17400;52.392;9.750;2023-03-18T05:45:02;100340.22;;;11.55;100.00
30636;BME280;17400;52.392;9.750;2023-03-18T05:47:30;100340.44;;;11.53;100.00
30636;BME280;17400;52.392;9.750;2023-03-18T05:49:58;100337.31;;;11.49;100.00
30636;BME280;17400;52.392;9.750;2023-03-18T05:52:28;100347.97;;;11.51;100.00
30636;BME280;17400;52.392;9.750;2023-03-18T05:54:59;100348.34;;;11.55;100.00
30636;BME280;17400;52.392;9.750;2023-03-18T05:57:27;100350.44;;;11.59;100.00
30636;BME280;17400;52.392;9.750;2023-03-18T05:59:58;100344.81;;;11.61;100.00
30636;BME280;17400;52.392;9.750;2023-03-18T06:02:26;100353.56;;;11.56;100.00
30636;BME280;17400;52.392;9.750;2023-03-18T06:04:53;100357.97;;;11.50;100.00
30636;BME280;17400;52.392;9.750;2023-03-18T06:07:21;100352.97;;;11.47;100.00
30636;BME280;17400;52.392;9.750;2023-03-18T06:09:49;100347.56;;;11.47;100.00
30636;BME280;17400;52.392;9.750;2023-03-18T06:12:19;100356.47;;;11.55;100.00
30636;BME280;17400;52.392;9.750;2023-03-18T06:14:49;100363.38;;;11.50;100.00
30636;BME280;17400;52.392;9.750;2023-03-18T06:17:17;100358.38;;;11.54;100.00
30636;BME280;17400;52.392;9.750;2023-03-18T06:19:45;100356.25;;;11.56;100.00
30636;BME280;17400;52.392;9.750;2023-03-18T06:22:14;100349.59;;;11.59;100.00
30636;BME280;17400;52.392;9.750;2023-03-18T06:24:43;100349.78;;;11.64;100.00
30636;BME280;17400;52.392;9.750;2023-03-18T06:27:13;100347.50;;;11.67;100.00
30636;BME280;17400;52.392;9.750;2023-03-18T06:29:43;100352.47;;;11.71;100.00
30636;BME280;17400;52.392;9.750;2023-03-18T06:32:10;100348.50;;;11.73;100.00
30636;BME280;17400;52.392;9.750;2023-03-18T06:34:38;100355.00;;;11.72;100.00
30636;BME280;17400;52.392;9.750;2023-03-18T06:37:06;100355.78;;;11.79;100.00
30636;BME280;17400;52.392;9.750;2023-03-18T06:39:35;100362.03;;;11.80;100.00
30636;BME280;17400;52.392;9.750;2023-03-18T06:42:04;100363.94;;;11.79;100.00
30636;BME280;17400;52.392;9.750;2023-03-18T06:44:32;100369.56;;;11.78;100.00
30636;BME280;17400;52.392;9.750;2023-03-18T06:47:02;100377.50;;;11.73;100.00
30636;BME280;17400;52.392;9.750;2023-03-18T06:49:29;100385.00;;;11.77;100.00
30636;BME280;17400;52.392;9.750;2023-03-18T06:51:58;100381.88;;;11.80;100.00
30636;BME280;17400;52.392;9.750;2023-03-18T06:54:25;100392.72;;;11.80;100.00
30636;BME280;17400;52.392;9.750;2023-03-18T06:56:54;100390.44;;;11.84;100.00
30636;BME280;17400;52.392;9.750;2023-03-18T06:59:21;100394.56;;;11.87;100.00
30636;BME280;17400;52.392;9.750;2023-03-18T07:01:49;100394.56;;;11.93;100.00
30636;BME280;17400;52.392;9.750;2023-03-18T07:04:18;100400.00;;;12.00;100.00
30636;BME280;17400;52.392;9.750;2023-03-18T07:06:46;100406.44;;;12.06;100.00
30636;BME280;17400;52.392;9.750;2023-03-18T07:09:13;100399.56;;;12.03;100.00
30636;BME280;17400;52.392;9.750;2023-03-18T07:11:42;100405.16;;;12.15;100.00
30636;BME280;17400;52.392;9.750;2023-03-18T07:14:11;100403.88;;;12.18;100.00
30636;BME280;17400;52.392;9.750;2023-03-18T07:16:40;100399.06;;;12.20;100.00
30636;BME280;17400;52.392;9.750;2023-03-18T07:19:10;100406.59;;;12.18;100.00
30636;BME280;17400;52.392;9.750;2023-03-18T07:21:39;100405.31;;;12.27;100.00
30636;BME280;17400;52.392;9.750;2023-03-18T07:24:08;100411.53;;;12.34;100.00
30636;BME280;17400;52.392;9.750;2023-03-18T07:26:37;100410.94;;;12.32;100.00
30636;BME280;17400;52.392;9.750;2023-03-18T07:29:04;100419.44;;;12.42;100.00
30636;BME280;17400;52.392;9.750;2023-03-18T07:31:32;100432.34;;;12.47;100.00
30636;BME280;17400;52.392;9.750;2023-03-18T07:34:00;100430.13;;;12.37;100.00
30636;BME280;17400;52.392;9.750;2023-03-18T07:36:28;100431.59;;;12.33;100.00
30636;BME280;17400;52.392;9.750;2023-03-18T07:38:59;100432.41;;;12.33;100.00
30636;BME280;17400;52.392;9.750;2023-03-18T07:41:27;100435.94;;;12.34;100.00
30636;BME280;17400;52.392;9.750;2023-03-18T07:43:55;100437.03;;;12.26;100.00
30636;BME280;17400;52.392;9.750;2023-03-18T07:46:23;100439.53;;;12.35;100.00
30636;BME280;17400;52.392;9.750;2023-03-18T07:48:51;100442.66;;;12.31;100.00
30636;BME280;17400;52.392;9.750;2023-03-18T07:51:21;100445.59;;;12.30;100.00
30636;BME280;17400;52.392;9.750;2023-03-18T07:53:49;100448.25;;;12.37;100.00
30636;BME280;17400;52.392;9.750;2023-03-18T07:56:18;100444.06;;;12.41;100.00
30636;BME280;17400;52.392;9.750;2023-03-18T07:58:46;100455.59;;;12.36;100.00
30636;BME280;17400;52.392;9.750;2023-03-18T08:01:14;100451.19;;;12.35;100.00
30636;BME280;17400;52.392;9.750;2023-03-18T08:03:44;100456.81;;;12.40;100.00
30636;BME280;17400;52.392;9.750;2023-03-18T08:06:13;100451.38;;;12.40;100.00
30636;BME280;17400;52.392;9.750;2023-03-18T08:08:42;100451.19;;;12.35;100.00
30636;BME280;17400;52.392;9.750;2023-03-18T08:11:11;100462.72;;;12.30;100.00
30636;BME280;17400;52.392;9.750;2023-03-18T08:13:41;100454.97;;;12.34;100.00
30636;BME280;17400;52.392;9.750;2023-03-18T08:16:09;100448.22;;;12.43;100.00
30636;BME280;17400;52.392;9.750;2023-03-18T08:18:37;100460.63;;;12.71;100.00
30636;BME280;17400;52.392;9.750;2023-03-18T08:21:05;100451.31;;;12.92;100.00
30636;BME280;17400;52.392;9.750;2023-03-18T08:23:33;100460.00;;;13.08;100.00
30636;BME280;17400;52.392;9.750;2023-03-18T08:26:01;100459.16;;;13.07;100.00
30636;BME280;17400;52.392;9.750;2023-03-18T08:28:29;100468.22;;;13.26;100.00
30636;BME280;17400;52.392;9.750;2023-03-18T08:30:58;100463.09;;;13.43;100.00
30636;BME280;17400;52.392;9.750;2023-03-18T08:33:26;100474.22;;;13.35;100.00
30636;BME280;17400;52.392;9.750;2023-03-18T08:35:54;100470.81;;;13.46;100.00
30636;BME280;17400;52.392;9.750;2023-03-18T08:38:23;100474.97;;;13.49;100.00
30636;BME280;17400;52.392;9.750;2023-03-18T08:40:51;100473.41;;;13.60;100.00
30636;BME280;17400;52.392;9.750;2023-03-18T08:43:20;100473.59;;;13.83;100.00
30636;BME280;17400;52.392;9.750;2023-03-18T08:45:51;100474.88;;;13.81;100.00
30636;BME280;17400;52.392;9.750;2023-03-18T08:48:22;100481.22;;;13.75;100.00
30636;BME280;17400;52.392;9.750;2023-03-18T08:50:51;100476.34;;;13.58;100.00
30636;BME280;17400;52.392;9.750;2023-03-18T08:53:19;100478.91;;;13.53;100.00
30636;BME280;17400;52.392;9.750;2023-03-18T08:55:46;100486.56;;;13.38;100.00
30636;BME280;17400;52.392;9.750;2023-03-18T08:58:15;100497.03;;;13.34;100.00
30636;BME280;17400;52.392;9.750;2023-03-18T09:00:44;100494.41;;;13.21;100.00
30636;BME280;17400;52.392;9.750;2023-03-18T09:03:12;100501.94;;;13.19;100.00
30636;BME280;17400;52.392;9.750;2023-03-18T09:05:46;100494.56;;;13.26;100.00
30636;BME280;17400;52.392;9.750;2023-03-18T09:08:14;100494.94;;;13.29;100.00
30636;BME280;17400;52.392;9.750;2023-03-18T09:10:43;100498.28;;;13.38;100.00
30636;BME280;17400;52.392;9.750;2023-03-18T09:13:13;100496.19;;;13.40;100.00
30636;BME280;17400;52.392;9.750;2023-03-18T09:15:40;100500.94;;;13.45;100.00
30636;BME280;17400;52.392;9.750;2023-03-18T09:18:08;100495.31;;;13.65;100.00
30636;BME280;17400;52.392;9.750;2023-03-18T09:20:38;100498.38;;;13.75;100.00
30636;BME280;17400;52.392;9.750;2023-03-18T09:23:08;100507.34;;;13.76;100.00
30636;BME280;17400;52.392;9.750;2023-03-18T09:25:37;100507.09;;;13.84;100.00
30636;BME280;17400;52.392;9.750;2023-03-18T09:28:05;100502.69;;;13.83;100.00
30636;BME280;17400;52.392;9.750;2023-03-18T09:30:33;100500.63;;;13.78;100.00
30636;BME280;17400;52.392;9.750;2023-03-18T09:33:05;100503.00;;;13.75;100.00
30636;BME280;17400;52.392;9.750;2023-03-18T09:35:36;100503.28;;;13.85;100.00
30636;BME280;17400;52.392;9.750;2023-03-18T09:38:04;100504.06;;;13.92;100.00
30636;BME280;17400;52.392;9.750;2023-03-18T09:40:36;100507.56;;;14.18;100.00
30636;BME280;17400;52.392;9.750;2023-03-18T09:43:17;100518.84;;;14.22;100.00
30636;BME280;17400;52.392;9.750;2023-03-18T09:45:56;100514.31;;;14.53;100.00
30636;BME280;17400;52.392;9.750;2023-03-18T09:48:41;100516.34;;;14.76;100.00
30636;BME280;17400;52.392;9.750;2023-03-18T09:51:19;100511.88;;;14.81;100.00
30636;BME280;17400;52.392;9.750;2023-03-18T09:53:54;100514.91;;;14.73;100.00
30636;BME280;17400;52.392;9.750;2023-03-18T09:56:27;100513.47;;;14.71;100.00
30636;BME280;17400;52.392;9.750;2023-03-18T09:59:00;100513.56;;;14.64;100.00
30636;BME280;17400;52.392;9.750;2023-03-18T10:01:30;100518.91;;;14.52;100.00
30636;BME280;17400;52.392;9.750;2023-03-18T10:04:03;100516.81;;;14.54;100.00
30636;BME280;17400;52.392;9.750;2023-03-18T10:06:35;100518.84;;;14.59;100.00
30636;BME280;17400;52.392;9.750;2023-03-18T10:09:08;100508.13;;;14.64;100.00
30636;BME280;17400;52.392;9.750;2023-03-18T10:11:43;100517.72;;;14.66;100.00
30636;BME280;17400;52.392;9.750;2023-03-18T10:14:20;100519.38;;;14.49;100.00
30636;BME280;17400;52.392;9.750;2023-03-18T10:16:56;100517.94;;;14.46;100.00
30636;BME280;17400;52.392;9.750;2023-03-18T10:19:30;100524.38;;;14.52;100.00
30636;BME280;17400;52.392;9.750;2023-03-18T10:22:12;100526.84;;;14.54;100.00
30636;BME280;17400;52.392;9.750;2023-03-18T10:24:48;100521.41;;;14.54;100.00
30636;BME280;17400;52.392;9.750;2023-03-18T10:27:28;100525.97;;;14.60;100.00
30636;BME280;17400;52.392;9.750;2023-03-18T10:30:20;100527.50;;;14.74;100.00
30636;BME280;17400;52.392;9.750;2023-03-18T10:33:02;100521.22;;;14.74;100.00
30636;BME280;17400;52.392;9.750;2023-03-18T10:35:37;100526.56;;;14.80;100.00
30636;BME280;17400;52.392;9.750;2023-03-18T10:38:15;100529.88;;;14.82;100.00
30636;BME280;17400;52.392;9.750;2023-03-18T10:40:45;100531.28;;;14.73;100.00
30636;BME280;17400;52.392;9.750;2023-03-18T10:43:16;100526.44;;;14.75;100.00
30636;BME280;17400;52.392;9.750;2023-03-18T10:45:45;100523.28;;;14.90;100.00
30636;BME280;17400;52.392;9.750;2023-03-18T10:48:20;100530.19;;;14.93;100.00
30636;BME280;17400;52.392;9.750;2023-03-18T10:51:00;100529.56;;;14.91;100.00
30636;BME280;17400;52.392;9.750;2023-03-18T10:53:34;100520.56;;;14.90;100.00
30636;BME280;17400;52.392;9.750;2023-03-18T10:56:06;100539.03;;;14.88;100.00
30636;BME280;17400;52.392;9.750;2023-03-18T10:58:38;100528.50;;;14.92;100.00
30636;BME280;17400;52.392;9.750;2023-03-18T11:01:08;100531.94;;;14.87;100.00
30636;BME280;17400;52.392;9.750;2023-03-18T11:03:41;100538.69;;;14.85;100.00
30636;BME280;17400;52.392;9.750;2023-03-18T11:06:15;100543.03;;;14.86;100.00
30636;BME280;17400;52.392;9.750;2023-03-18T11:08:47;100536.09;;;14.90;100.00
30636;BME280;17400;52.392;9.750;2023-03-18T11:11:21;100531.22;;;14.92;100.00
30636;BME280;17400;52.392;9.750;2023-03-18T11:13:52;100531.94;;;14.87;100.00
30636;BME280;17400;52.392;9.750;2023-03-18T11:16:25;100529.56;;;14.91;100.00
30636;BME280;17400;52.392;9.750;2023-03-18T11:18:57;100540.69;;;14.89;100.00
30636;BME280;17400;52.392;9.750;2023-03-18T11:21:26;100535.72;;;14.86;100.00
30636;BME280;17400;52.392;9.750;2023-03-18T11:23:56;100540.31;;;14.86;100.00
30636;BME280;17400;52.392;9.750;2023-03-18T11:26:53;100546.53;;;14.93;100.00
30636;BME280;17400;52.392;9.750;2023-03-18T11:29:25;100539.47;;;15.04;100.00
30636;BME280;17400;52.392;9.750;2023-03-18T11:31:56;100538.78;;;15.08;100.00
30636;BME280;17400;52.392;9.750;2023-03-18T11:34:26;100536.31;;;15.19;100.00
30636;BME280;17400;52.392;9.750;2023-03-18T11:36:57;100535.25;;;15.20;100.00
30636;BME280;17400;52.392;9.750;2023-03-18T11:39:29;100531.81;;;15.12;100.00
30636;BME280;17400;52.392;9.750;2023-03-18T11:41:58;100529.50;;;15.09;100.00
30636;BME280;17400;52.392;9.750;2023-03-18T11:44:30;100535.25;;;15.20;100.00
30636;BME280;17400;52.392;9.750;2023-03-18T11:47:02;100531.38;;;15.27;100.00
30636;BME280;17400;52.392;9.750;2023-03-18T11:49:33;100537.81;;;15.45;100.00
30636;BME280;17400;52.392;9.750;2023-03-18T11:52:09;100538.78;;;15.51;100.00
30636;BME280;17400;52.392;9.750;2023-03-18T11:55:10;100541.75;;;15.61;100.00
30636;BME280;17400;52.392;9.750;2023-03-18T11:57:54;100538.19;;;15.60;98.68
30636;BME280;17400;52.392;9.750;2023-03-18T12:00:32;100530.03;;;15.72;99.04
30636;BME280;17400;52.392;9.750;2023-03-18T12:06:15;100542.28;;;16.05;95.18
30636;BME280;17400;52.392;9.750;2023-03-18T12:08:50;100527.09;;;16.09;93.01
30636;BME280;17400;52.392;9.750;2023-03-18T12:11:26;100538.25;;;15.96;91.98
30636;BME280;17400;52.392;9.750;2023-03-18T12:14:03;100537.53;;;15.89;92.14
30636;BME280;17400;52.392;9.750;2023-03-18T12:16:44;100535.28;;;15.97;92.36
30636;BME280;17400;52.392;9.750;2023-03-18T12:19:34;100533.84;;;15.83;91.94
30636;BME280;17400;52.392;9.750;2023-03-18T12:25:22;100541.81;;;16.08;93.12
30636;BME280;17400;52.392;9.750;2023-03-18T12:27:59;100535.41;;;16.03;92.08
30636;BME280;17400;52.392;9.750;2023-03-18T12:30:47;100530.44;;;16.11;93.23
30636;BME280;17400;52.392;9.750;2023-03-18T12:33:31;100548.00;;;16.27;90.62
30636;BME280;17400;52.392;9.750;2023-03-18T12:36:08;100539.41;;;16.36;89.41
30636;BME280;17400;52.392;9.750;2023-03-18T12:41:46;100537.97;;;16.57;89.19
30636;BME280;17400;52.392;9.750;2023-03-18T12:44:27;100541.16;;;16.54;88.80
30636;BME280;17400;52.392;9.750;2023-03-18T12:47:02;100540.31;;;16.65;89.25
30636;BME280;17400;52.392;9.750;2023-03-18T12:49:36;100538.72;;;16.81;85.67
30636;BME280;17400;52.392;9.750;2023-03-18T12:52:07;100535.06;;;16.75;87.23
30636;BME280;17400;52.392;9.750;2023-03-18T12:54:38;100532.25;;;16.58;90.24
30636;BME280;17400;52.392;9.750;2023-03-18T12:57:12;100532.28;;;16.46;91.55
30636;BME280;17400;52.392;9.750;2023-03-18T12:59:47;100528.84;;;16.39;91.22
30636;BME280;17400;52.392;9.750;2023-03-18T13:02:28;100533.09;;;16.35;90.61
30636;BME280;17400;52.392;9.750;2023-03-18T13:05:05;100529.66;;;16.40;90.11
30636;BME280;17400;52.392;9.750;2023-03-18T13:07:42;100524.06;;;16.46;89.65
30636;BME280;17400;52.392;9.750;2023-03-18T13:10:19;100523.38;;;16.51;86.58